createdAt,value
2022-12-17T04:33:44.211Z,96880.16
2022-12-17T04:38:46.082Z,96880.16
2022-12-17T04:43:47.867Z,96894.27
2022-12-17T04:48:49.614Z,96894.27
2022-12-17T04:53:51.493Z,96902.05
2022-12-17T04:58:53.252Z,96902.05
2022-12-17T05:03:55.152Z,96895.91
2022-12-17T05:08:56.967Z,96922.67
2022-12-17T05:13:58.681Z,96922.67
2022-12-17T05:19:00.490Z,96924.73
2022-12-17T05:24:02.243Z,96924.73
2022-12-17T05:29:04.090Z,96936.3
2022-12-17T05:34:05.946Z,96936.3
2022-12-17T05:39:07.646Z,96942.18
2022-12-17T05:44:09.480Z,96942.18
2022-12-17T05:49:11.317Z,96964.7
2022-12-17T05:54:13.014Z,96964.7
2022-12-17T05:59:14.786Z,96961.73
2022-12-17T06:04:16.759Z,96980.45
2022-12-17T06:09:18.687Z,96980.45
2022-12-17T06:14:20.603Z,96985.15
2022-12-17T06:19:22.397Z,96985.15
2022-12-17T06:24:24.202Z,97023.9
2022-12-17T06:29:26.031Z,97023.9
2022-12-17T06:34:27.806Z,97022.63
2022-12-17T06:39:29.770Z,97022.63
2022-12-17T06:44:31.785Z,97032.72
2022-12-17T06:49:33.512Z,97032.72
2022-12-17T06:54:35.493Z,97064.75
2022-12-17T06:59:37.216Z,97062.66
2022-12-17T07:04:38.943Z,97062.66
2022-12-17T07:09:40.981Z,97067.94
2022-12-17T07:14:42.727Z,97067.94
2022-12-17T07:19:44.512Z,97069.84
2022-12-17T07:24:46.358Z,97069.84
2022-12-17T07:29:48.150Z,97088.86
2022-12-17T07:34:49.941Z,97088.86
2022-12-17T07:39:51.965Z,97091.82
2022-12-17T07:44:53.920Z,97096.32
2022-12-17T07:49:55.821Z,97096.32
2022-12-17T07:54:57.589Z,97127.5
2022-12-17T07:59:59.306Z,97127.5
2022-12-17T08:05:01.003Z,97133.77
2022-12-17T08:10:03.741Z,97133.77
2022-12-17T08:15:06.036Z,97119.86
2022-12-17T08:20:08.517Z,97119.86
2022-12-17T08:25:10.293Z,97140.74
2022-12-17T08:30:12.356Z,97140.74
2022-12-17T08:35:14.189Z,97142.44
2022-12-17T08:40:15.993Z,97167.44
2022-12-17T08:45:17.695Z,97167.44
2022-12-17T08:50:19.483Z,97182.5
2022-12-17T08:55:21.279Z,97182.5
2022-12-17T09:00:23.226Z,97180.52
2022-12-17T09:05:25.114Z,97180.52
2022-12-17T09:10:27.151Z,97190.41
2022-12-17T09:15:33.591Z,97190.41
2022-12-17T09:20:35.333Z,97199.61
2022-12-17T09:25:37.125Z,97199.61
2022-12-17T09:30:39.127Z,97222.34
2022-12-17T09:35:41.063Z,97203.7
2022-12-17T09:45:51.504Z,97209.73
2022-12-17T09:50:53.282Z,97209.73
2022-12-17T09:55:54.962Z,97237.44
2022-12-17T10:01:01.731Z,97237.44
2022-12-17T10:06:07.028Z,97242
2022-12-17T10:11:11.453Z,97242
2022-12-17T10:16:18.436Z,97225.63
2022-12-17T10:21:20.509Z,97225.63
2022-12-17T10:26:23.627Z,97235.17
2022-12-17T10:31:28.522Z,97274.98
2022-12-17T10:36:31.052Z,97274.98
2022-12-17T10:41:34.903Z,97277.91
2022-12-17T10:46:37.052Z,97277.91
2022-12-17T10:51:39.167Z,97300
2022-12-17T10:56:41.073Z,97300
2022-12-17T11:01:43.462Z,97350.2
2022-12-17T11:06:46.806Z,97350.2
2022-12-17T11:11:50.367Z,97390.78
2022-12-17T11:16:53.479Z,97400.44
2022-12-17T11:21:56.744Z,97400.44
2022-12-17T11:26:58.957Z,97402.44
2022-12-17T11:42:18.592Z,97405.5
2022-12-17T11:47:25.369Z,97406.67
2022-12-17T11:57:36.978Z,97416.63
2022-12-17T12:02:45.004Z,97424.2
2022-12-17T12:18:03.255Z,97448.63
2022-12-17T12:33:22.959Z,97459.94
2022-12-17T12:38:26.843Z,97459.94
2022-12-17T12:43:29.775Z,97454.34
2022-12-17T12:48:38.642Z,97462.85
2022-12-17T12:53:41.219Z,97462.85
2022-12-17T12:58:42.993Z,97484.01
2022-12-17T13:03:52.230Z,97484.01
2022-12-17T13:14:00.797Z,97501.25
2022-12-17T13:19:03.357Z,97506.45
2022-12-17T13:29:12.008Z,97548.45
2022-12-17T13:34:18.793Z,97548.45
2022-12-17T13:39:26.599Z,97568.33
2022-12-17T13:44:30.981Z,97588.52
2022-12-17T13:49:32.842Z,97588.52
2022-12-17T13:54:34.604Z,97604.28
2022-12-17T13:59:36.630Z,97604.28
2022-12-17T14:04:38.632Z,97623.66
2022-12-17T14:09:42.733Z,97623.66
2022-12-17T14:14:46.600Z,97618.17
2022-12-17T14:19:51.213Z,97618.17
2022-12-17T14:24:53.004Z,97634.71
2022-12-17T14:29:57.634Z,97661.45
2022-12-17T14:35:01.720Z,97661.45
2022-12-17T14:40:05.459Z,97660.51
2022-12-17T14:55:23.456Z,97667.92
2022-12-17T15:00:25.271Z,97698.69
2022-12-17T15:05:27.085Z,97698.69
2022-12-17T15:10:28.833Z,97731.3
2022-12-17T15:15:30.511Z,97731.3
2022-12-17T15:20:32.380Z,97745.92
2022-12-17T15:30:44.259Z,97766.78
2022-12-17T15:35:46.258Z,97786.73
2022-12-17T15:40:48.006Z,97786.73
2022-12-17T15:45:51.026Z,97787.79
2022-12-17T15:50:53.090Z,97787.79
2022-12-17T15:55:59.005Z,97792.11
2022-12-17T16:01:01.321Z,97792.11
2022-12-17T16:06:04.463Z,97803.53
2022-12-17T16:11:07.631Z,97807.25
2022-12-17T16:16:10.347Z,97807.25
2022-12-17T16:21:13.257Z,97835.34
2022-12-17T16:26:15.836Z,97835.34
2022-12-17T16:31:17.898Z,97865.02
2022-12-17T16:36:21.146Z,97865.02
2022-12-17T16:41:24.088Z,97878.14
2022-12-17T16:46:28.357Z,97878.14
2022-12-17T16:51:31.771Z,97893.9
2022-12-17T17:01:41.567Z,97909.42
2022-12-17T17:06:45.168Z,97917.42
2022-12-17T17:11:52.873Z,97917.42
2022-12-17T17:16:54.619Z,97927.9
2022-12-17T17:21:56.368Z,97927.9
2022-12-17T17:26:58.124Z,97949.83
2022-12-17T17:37:05.665Z,97970.13
2022-12-17T17:42:07.549Z,97970.13
2022-12-17T17:47:09.674Z,97991.06
2022-12-17T17:52:12.955Z,97998.45
2022-12-17T17:57:14.784Z,97998.45
2022-12-17T18:02:17.512Z,98011.09
2022-12-17T18:12:26.040Z,98033.52
2022-12-17T18:17:27.949Z,98033.52
2022-12-17T18:22:29.757Z,98044.89
2022-12-17T18:27:31.560Z,98044.89
2022-12-17T18:32:33.491Z,98048.92
2022-12-17T18:37:35.676Z,98048.92
2022-12-17T18:42:37.772Z,98079.81
2022-12-17T18:47:39.569Z,98089.63
2022-12-17T18:52:41.634Z,98089.63
2022-12-17T18:57:43.428Z,98126.48
2022-12-17T19:02:46.319Z,98126.48
2022-12-17T19:07:48.808Z,98143.15
2022-12-17T19:12:51.730Z,98143.15
2022-12-17T19:17:55.277Z,98158.8
2022-12-17T19:22:58.235Z,98158.8
2022-12-17T19:28:00.578Z,98179.64
2022-12-17T19:33:03.124Z,98179.64
2022-12-17T19:38:05.339Z,98187.71
2022-12-17T19:43:08.193Z,98196.13
2022-12-17T19:48:10.462Z,98196.13
2022-12-17T19:53:13.704Z,98221.64
2022-12-17T19:58:16.204Z,98221.64
2022-12-17T20:03:20.049Z,98237.53
2022-12-17T20:08:23.327Z,98237.53
2022-12-17T20:13:25.245Z,98255.64
2022-12-17T20:18:27.343Z,98255.64
2022-12-17T20:23:29.778Z,98262
2022-12-17T20:28:32.725Z,98283.98
2022-12-17T20:33:35.423Z,98283.98
2022-12-17T20:38:39.608Z,98306.33
2022-12-17T20:43:43.728Z,98306.33
2022-12-17T20:48:46.311Z,98317.38
2022-12-17T20:53:49.589Z,98317.38
2022-12-17T20:58:52.637Z,98332.77
2022-12-17T21:03:55.792Z,98332.77
2022-12-17T21:08:58.521Z,98350.48
2022-12-17T21:14:04.374Z,98350.48
2022-12-17T21:19:07.110Z,98357.41
2022-12-17T21:24:09.023Z,98377.96
2022-12-17T21:29:10.985Z,98377.96
2022-12-17T21:34:14.520Z,98391.86
2022-12-17T21:39:17.546Z,98391.86
2022-12-17T21:44:19.366Z,98394.88
2022-12-17T21:49:21.632Z,98394.88
2022-12-17T21:54:23.911Z,98394.88
2022-12-17T21:59:25.636Z,98394.88
2022-12-17T22:04:27.851Z,98394.88
2022-12-17T22:14:35.413Z,98394.88
2022-12-17T22:19:37.193Z,98394.88
2022-12-17T22:24:39.123Z,98394.88
2022-12-17T22:29:42.263Z,98394.88
